sensor_id;sensor_type;location;lat;lon;timestamp;pressure;altitude;pressure_sealevel;temperature;humidity
11343;BME280;5726;42.160;24.746;2022-08-21T00:01:57;98864.09;;;25.95;95.34
11343;BME280;5726;42.160;24.746;2022-08-21T00:04:44;98883.03;;;25.79;96.93
11343;BME280;5726;42.160;24.746;2022-08-21T00:07:30;98890.28;;;25.49;96.76
11343;BME280;5726;42.160;24.746;2022-08-21T00:10:17;98901.75;;;25.30;98.16
11343;BME280;5726;42.160;24.746;2022-08-21T00:13:04;98897.03;;;25.27;99.78
11343;BME280;5726;42.160;24.746;2022-08-21T00:15:50;98891.97;;;25.26;100.00
11343;BME280;5726;42.160;24.746;2022-08-21T00:18:36;98882.78;;;25.56;100.00
11343;BME280;5726;42.160;24.746;2022-08-21T00:21:22;98880.19;;;25.93;97.46
11343;BME280;5726;42.160;24.746;2022-08-21T00:24:08;98872.00;;;26.33;94.10
11343;BME280;5726;42.160;24.746;2022-08-21T00:26:54;98870.78;;;26.38;93.96
11343;BME280;5726;42.160;24.746;2022-08-21T00:29:40;98864.66;;;26.60;91.83
11343;BME280;5726;42.160;24.746;2022-08-21T00:32:27;98863.97;;;26.52;91.58
11343;BME280;5726;42.160;24.746;2022-08-21T00:35:15;98859.56;;;26.58;91.89
11343;BME280;5726;42.160;24.746;2022-08-21T00:38:02;98866.72;;;26.52;90.77
11343;BME280;5726;42.160;24.746;2022-08-21T00:40:52;98876.09;;;26.58;90.80
11343;BME280;5726;42.160;24.746;2022-08-21T00:43:40;98871.25;;;26.33;92.56
11343;BME280;5726;42.160;24.746;2022-08-21T00:46:26;98849.63;;;26.35;92.31
11343;BME280;5726;42.160;24.746;2022-08-21T00:49:12;98839.97;;;26.56;91.46
11343;BME280;5726;42.160;24.746;2022-08-21T00:51:59;98840.72;;;26.60;91.50
11343;BME280;5726;42.160;24.746;2022-08-21T00:54:47;98845.47;;;26.56;91.31
11343;BME280;5726;42.160;24.746;2022-08-21T00:57:55;98850.63;;;26.51;91.45
11343;BME280;5726;42.160;24.746;2022-08-21T01:00:44;98854.25;;;26.45;91.50
11343;BME280;5726;42.160;24.746;2022-08-21T01:03:31;98854.91;;;26.55;89.80
11343;BME280;5726;42.160;24.746;2022-08-21T01:06:17;98849.78;;;26.57;88.57
11343;BME280;5726;42.160;24.746;2022-08-21T01:09:03;98851.75;;;26.57;88.96
11343;BME280;5726;42.160;24.746;2022-08-21T01:11:49;98847.84;;;26.54;89.12
11343;BME280;5726;42.160;24.746;2022-08-21T01:14:35;98844.66;;;26.59;89.46
11343;BME280;5726;42.160;24.746;2022-08-21T01:17:21;98820.94;;;26.72;87.03
11343;BME280;5726;42.160;24.746;2022-08-21T01:20:09;98813.84;;;26.71;87.51
11343;BME280;5726;42.160;24.746;2022-08-21T01:22:56;98823.97;;;26.81;85.21
11343;BME280;5726;42.160;24.746;2022-08-21T01:25:42;98813.34;;;26.47;88.84
11343;BME280;5726;42.160;24.746;2022-08-21T01:28:31;98810.81;;;26.62;87.21
11343;BME280;5726;42.160;24.746;2022-08-21T01:31:20;98802.34;;;26.47;86.12
11343;BME280;5726;42.160;24.746;2022-08-21T01:34:07;98804.38;;;26.43;88.51
11343;BME280;5726;42.160;24.746;2022-08-21T01:36:54;98798.94;;;26.69;85.18
11343;BME280;5726;42.160;24.746;2022-08-21T01:39:41;98804.44;;;26.72;85.24
11343;BME280;5726;42.160;24.746;2022-08-21T01:42:27;98807.66;;;26.31;87.67
11343;BME280;5726;42.160;24.746;2022-08-21T01:45:14;98804.41;;;26.39;85.21
11343;BME280;5726;42.160;24.746;2022-08-21T01:48:00;98814.41;;;26.19;85.39
11343;BME280;5726;42.160;24.746;2022-08-21T01:50:45;98824.22;;;26.17;85.41
11343;BME280;5726;42.160;24.746;2022-08-21T01:53:33;98831.56;;;25.87;86.00
11343;BME280;5726;42.160;24.746;2022-08-21T01:56:21;98844.06;;;25.37;90.85
11343;BME280;5726;42.160;24.746;2022-08-21T01:59:07;98845.94;;;24.65;96.31
11343;BME280;5726;42.160;24.746;2022-08-21T02:01:54;98866.34;;;24.37;100.00
11343;BME280;5726;42.160;24.746;2022-08-21T02:04:40;98892.16;;;24.22;100.00
11343;BME280;5726;42.160;24.746;2022-08-21T02:07:26;98899.63;;;24.59;100.00
11343;BME280;5726;42.160;24.746;2022-08-21T02:10:15;98894.31;;;25.24;99.96
11343;BME280;5726;42.160;24.746;2022-08-21T02:13:00;98900.13;;;25.43;98.53
11343;BME280;5726;42.160;24.746;2022-08-21T02:15:47;98891.06;;;25.46;98.98
11343;BME280;5726;42.160;24.746;2022-08-21T02:18:34;98880.41;;;25.58;98.51
11343;BME280;5726;42.160;24.746;2022-08-21T02:21:20;98889.78;;;25.68;98.00
11343;BME280;5726;42.160;24.746;2022-08-21T02:24:06;98888.91;;;25.81;96.72
11343;BME280;5726;42.160;24.746;2022-08-21T02:26:52;98899.81;;;25.95;96.20
11343;BME280;5726;42.160;24.746;2022-08-21T02:29:38;98897.66;;;25.66;97.53
11343;BME280;5726;42.160;24.746;2022-08-21T02:32:25;98902.75;;;25.67;98.74
11343;BME280;5726;42.160;24.746;2022-08-21T02:35:11;98906.44;;;25.98;96.92
11343;BME280;5726;42.160;24.746;2022-08-21T02:38:04;98909.66;;;25.86;97.57
11343;BME280;5726;42.160;24.746;2022-08-21T02:40:51;98911.69;;;25.82;97.32
11343;BME280;5726;42.160;24.746;2022-08-21T02:43:37;98929.75;;;25.79;97.94
11343;BME280;5726;42.160;24.746;2022-08-21T02:46:23;98917.66;;;25.66;99.52
11343;BME280;5726;42.160;24.746;2022-08-21T02:49:09;98922.28;;;25.83;99.07
11343;BME280;5726;42.160;24.746;2022-08-21T02:51:54;98923.00;;;25.87;97.20
11343;BME280;5726;42.160;24.746;2022-08-21T02:54:40;98921.78;;;25.95;97.07
11343;BME280;5726;42.160;24.746;2022-08-21T02:57:26;98916.50;;;26.18;95.39
11343;BME280;5726;42.160;24.746;2022-08-21T03:00:12;98919.78;;;26.02;96.98
11343;BME280;5726;42.160;24.746;2022-08-21T03:02:59;98907.28;;;25.91;97.49
11343;BME280;5726;42.160;24.746;2022-08-21T03:05:45;98907.31;;;25.88;98.36
11343;BME280;5726;42.160;24.746;2022-08-21T03:08:31;98907.25;;;25.98;97.74
11343;BME280;5726;42.160;24.746;2022-08-21T03:11:17;98906.06;;;25.96;97.49
11343;BME280;5726;42.160;24.746;2022-08-21T03:14:02;98910.41;;;25.93;97.79
11343;BME280;5726;42.160;24.746;2022-08-21T03:16:50;98919.00;;;25.98;97.44
11343;BME280;5726;42.160;24.746;2022-08-21T03:19:36;98922.75;;;26.22;96.10
11343;BME280;5726;42.160;24.746;2022-08-21T03:22:22;98919.97;;;26.29;94.84
11343;BME280;5726;42.160;24.746;2022-08-21T03:25:08;98923.47;;;26.33;95.41
11343;BME280;5726;42.160;24.746;2022-08-21T03:27:56;98916.66;;;26.48;94.11
11343;BME280;5726;42.160;24.746;2022-08-21T03:30:45;98919.25;;;26.65;92.55
11343;BME280;5726;42.160;24.746;2022-08-21T03:33:32;98916.44;;;26.28;93.18
11343;BME280;5726;42.160;24.746;2022-08-21T03:36:17;98921.13;;;25.77;97.55
11343;BME280;5726;42.160;24.746;2022-08-21T03:39:03;98916.84;;;25.69;97.73
11343;BME280;5726;42.160;24.746;2022-08-21T03:41:49;98920.78;;;25.68;100.00
11343;BME280;5726;42.160;24.746;2022-08-21T03:44:35;98915.16;;;25.86;100.00
11343;BME280;5726;42.160;24.746;2022-08-21T03:47:20;98923.13;;;25.66;100.00
11343;BME280;5726;42.160;24.746;2022-08-21T03:50:08;98923.78;;;25.91;96.94
11343;BME280;5726;42.160;24.746;2022-08-21T03:52:54;98927.00;;;25.79;97.19
11343;BME280;5726;42.160;24.746;2022-08-21T03:55:40;98930.09;;;25.81;99.08
11343;BME280;5726;42.160;24.746;2022-08-21T03:58:27;98930.19;;;25.74;99.72
11343;BME280;5726;42.160;24.746;2022-08-21T04:01:13;98930.03;;;25.92;98.67
11343;BME280;5726;42.160;24.746;2022-08-21T04:03:59;98933.06;;;26.07;97.60
11343;BME280;5726;42.160;24.746;2022-08-21T04:06:44;98933.81;;;26.15;98.14
11343;BME280;5726;42.160;24.746;2022-08-21T04:09:30;98940.41;;;26.24;97.04
11343;BME280;5726;42.160;24.746;2022-08-21T04:12:16;98937.63;;;26.31;96.30
11343;BME280;5726;42.160;24.746;2022-08-21T04:15:03;98944.28;;;26.34;95.57
11343;BME280;5726;42.160;24.746;2022-08-21T04:17:49;98943.09;;;26.35;95.37
11343;BME280;5726;42.160;24.746;2022-08-21T04:20:35;98940.00;;;26.26;95.24
11343;BME280;5726;42.160;24.746;2022-08-21T04:23:21;98947.09;;;26.20;96.11
11343;BME280;5726;42.160;24.746;2022-08-21T04:26:07;98942.34;;;26.31;95.33
11343;BME280;5726;42.160;24.746;2022-08-21T04:28:53;98946.22;;;26.37;94.76
11343;BME280;5726;42.160;24.746;2022-08-21T04:31:42;98936.06;;;26.27;95.76
11343;BME280;5726;42.160;24.746;2022-08-21T04:34:29;98942.41;;;26.20;97.30
11343;BME280;5726;42.160;24.746;2022-08-21T04:37:14;98932.94;;;26.25;96.02
11343;BME280;5726;42.160;24.746;2022-08-21T04:40:02;98935.78;;;26.11;97.44
11343;BME280;5726;42.160;24.746;2022-08-21T04:42:54;98928.69;;;26.17;97.72
11343;BME280;5726;42.160;24.746;2022-08-21T04:45:43;98926.19;;;26.36;96.14
11343;BME280;5726;42.160;24.746;2022-08-21T04:48:30;98925.78;;;26.38;95.89
11343;BME280;5726;42.160;24.746;2022-08-21T04:51:19;98923.34;;;26.47;94.52
11343;BME280;5726;42.160;24.746;2022-08-21T04:54:11;98913.78;;;26.61;94.53
11343;BME280;5726;42.160;24.746;2022-08-21T04:57:02;98899.19;;;26.28;96.25
11343;BME280;5726;42.160;24.746;2022-08-21T04:59:51;98907.44;;;26.21;96.30
11343;BME280;5726;42.160;24.746;2022-08-21T05:02:37;98904.50;;;26.48;93.34
11343;BME280;5726;42.160;24.746;2022-08-21T05:05:23;98899.56;;;26.23;94.41
11343;BME280;5726;42.160;24.746;2022-08-21T05:08:12;98895.44;;;25.98;95.90
11343;BME280;5726;42.160;24.746;2022-08-21T05:10:59;98906.69;;;25.56;99.89
11343;BME280;5726;42.160;24.746;2022-08-21T05:13:45;98904.44;;;25.41;100.00
11343;BME280;5726;42.160;24.746;2022-08-21T05:16:31;98906.34;;;25.50;98.78
11343;BME280;5726;42.160;24.746;2022-08-21T05:19:17;98893.41;;;25.51;100.00
11343;BME280;5726;42.160;24.746;2022-08-21T05:22:03;98894.97;;;25.52;99.79
11343;BME280;5726;42.160;24.746;2022-08-21T05:24:48;98892.97;;;25.59;98.80
11343;BME280;5726;42.160;24.746;2022-08-21T05:27:35;98888.19;;;25.70;98.33
11343;BME280;5726;42.160;24.746;2022-08-21T05:30:01;98889.94;;;26.01;96.22
11343;BME280;5726;42.160;24.746;2022-08-21T05:32:26;98888.28;;;26.10;93.96
11343;BME280;5726;42.160;24.746;2022-08-21T05:34:53;98887.09;;;25.54;96.17
11343;BME280;5726;42.160;24.746;2022-08-21T05:37:20;98893.44;;;25.41;100.00
11343;BME280;5726;42.160;24.746;2022-08-21T05:39:45;98891.31;;;25.76;97.33
11343;BME280;5726;42.160;24.746;2022-08-21T05:42:11;98899.84;;;25.88;96.71
11343;BME280;5726;42.160;24.746;2022-08-21T05:44:36;98897.03;;;25.98;94.04
11343;BME280;5726;42.160;24.746;2022-08-21T05:47:04;98899.38;;;26.00;95.12
11343;BME280;5726;42.160;24.746;2022-08-21T05:49:30;98907.56;;;26.07;94.53
11343;BME280;5726;42.160;24.746;2022-08-21T05:51:56;98897.06;;;25.95;95.82
11343;BME280;5726;42.160;24.746;2022-08-21T05:54:21;98905.75;;;25.87;96.79
11343;BME280;5726;42.160;24.746;2022-08-21T05:56:46;98913.25;;;25.79;100.00
11343;BME280;5726;42.160;24.746;2022-08-21T05:59:12;98906.63;;;25.73;100.00
11343;BME280;5726;42.160;24.746;2022-08-21T06:01:39;98910.69;;;25.45;100.00
11343;BME280;5726;42.160;24.746;2022-08-21T06:04:04;98916.72;;;25.19;100.00
11343;BME280;5726;42.160;24.746;2022-08-21T06:06:30;98917.00;;;25.35;100.00
11343;BME280;5726;42.160;24.746;2022-08-21T06:08:56;98922.03;;;25.53;100.00
11343;BME280;5726;42.160;24.746;2022-08-21T06:11:21;98920.88;;;25.48;100.00
11343;BME280;5726;42.160;24.746;2022-08-21T06:13:46;98928.69;;;25.52;100.00
11343;BME280;5726;42.160;24.746;2022-08-21T06:16:14;98929.41;;;25.63;99.49
11343;BME280;5726;42.160;24.746;2022-08-21T06:18:41;98923.28;;;25.39;100.00
11343;BME280;5726;42.160;24.746;2022-08-21T06:21:08;98929.47;;;25.56;100.00
11343;BME280;5726;42.160;24.746;2022-08-21T06:23:34;98933.38;;;25.55;99.39
11343;BME280;5726;42.160;24.746;2022-08-21T06:26:01;98933.47;;;25.38;100.00
11343;BME280;5726;42.160;24.746;2022-08-21T06:28:27;98923.38;;;25.11;100.00
11343;BME280;5726;42.160;24.746;2022-08-21T06:30:53;98921.88;;;24.82;100.00
11343;BME280;5726;42.160;24.746;2022-08-21T06:33:19;98923.81;;;24.92;100.00
11343;BME280;5726;42.160;24.746;2022-08-21T06:35:44;98920.94;;;25.37;100.00
11343;BME280;5726;42.160;24.746;2022-08-21T06:38:10;98923.28;;;25.39;100.00
11343;BME280;5726;42.160;24.746;2022-08-21T06:40:36;98917.34;;;25.44;100.00
11343;BME280;5726;42.160;24.746;2022-08-21T06:43:15;98917.66;;;25.66;100.00
11343;BME280;5726;42.160;24.746;2022-08-21T06:45:41;98918.13;;;25.48;100.00
11343;BME280;5726;42.160;24.746;2022-08-21T06:48:07;98912.38;;;25.93;100.00
11343;BME280;5726;42.160;24.746;2022-08-21T06:50:33;98912.75;;;25.98;100.00
11343;BME280;5726;42.160;24.746;2022-08-21T06:53:19;98901.63;;;26.12;96.90
11343;BME280;5726;42.160;24.746;2022-08-21T06:55:46;98898.72;;;25.82;100.00
11343;BME280;5726;42.160;24.746;2022-08-21T06:58:12;98899.13;;;25.81;100.00
11343;BME280;5726;42.160;24.746;2022-08-21T07:00:39;98898.88;;;26.12;100.00
11343;BME280;5726;42.160;24.746;2022-08-21T07:03:05;98900.72;;;26.32;96.76
11343;BME280;5726;42.160;24.746;2022-08-21T07:05:31;98905.63;;;26.04;97.35
11343;BME280;5726;42.160;24.746;2022-08-21T07:07:57;98894.31;;;25.95;100.00
11343;BME280;5726;42.160;24.746;2022-08-21T07:10:24;98900.16;;;26.00;99.93
11343;BME280;5726;42.160;24.746;2022-08-21T07:12:50;98889.09;;;26.07;99.50
11343;BME280;5726;42.160;24.746;2022-08-21T07:15:15;98889.47;;;26.13;99.12
11343;BME280;5726;42.160;24.746;2022-08-21T07:17:41;98893.34;;;26.15;98.74
11343;BME280;5726;42.160;24.746;2022-08-21T07:20:07;98897.72;;;26.09;97.21
11343;BME280;5726;42.160;24.746;2022-08-21T07:22:33;98892.25;;;26.06;99.06
11343;BME280;5726;42.160;24.746;2022-08-21T07:25:00;98900.06;;;26.14;97.02
11343;BME280;5726;42.160;24.746;2022-08-21T07:27:26;98890.78;;;26.42;95.85
11343;BME280;5726;42.160;24.746;2022-08-21T07:29:52;98888.84;;;26.39;93.93
11343;BME280;5726;42.160;24.746;2022-08-21T07:32:17;98897.00;;;26.02;97.48
11343;BME280;5726;42.160;24.746;2022-08-21T07:34:43;98884.69;;;26.20;97.48
11343;BME280;5726;42.160;24.746;2022-08-21T07:37:09;98890.50;;;26.33;96.17
11343;BME280;5726;42.160;24.746;2022-08-21T07:39:35;98883.66;;;26.48;94.42
11343;BME280;5726;42.160;24.746;2022-08-21T07:42:00;98874.44;;;26.64;90.40
11343;BME280;5726;42.160;24.746;2022-08-21T07:44:26;98866.59;;;26.66;91.80
11343;BME280;5726;42.160;24.746;2022-08-21T07:46:52;98876.84;;;26.62;93.75
11343;BME280;5726;42.160;24.746;2022-08-21T07:49:17;98875.78;;;26.86;92.21
11343;BME280;5726;42.160;24.746;2022-08-21T07:51:43;98872.09;;;26.63;91.20
11343;BME280;5726;42.160;24.746;2022-08-21T07:54:08;98883.84;;;26.27;95.48
11343;BME280;5726;42.160;24.746;2022-08-21T07:56:34;98888.25;;;26.14;98.03
11343;BME280;5726;42.160;24.746;2022-08-21T07:58:59;98883.47;;;26.21;95.46
11343;BME280;5726;42.160;24.746;2022-08-21T08:01:27;98886.00;;;26.02;97.50
11343;BME280;5726;42.160;24.746;2022-08-21T08:03:53;98885.81;;;25.72;98.69
11343;BME280;5726;42.160;24.746;2022-08-21T08:06:18;98888.72;;;25.41;100.00
11343;BME280;5726;42.160;24.746;2022-08-21T08:08:45;98896.19;;;25.41;100.00
11343;BME280;5726;42.160;24.746;2022-08-21T08:11:11;98889.69;;;25.10;100.00
11343;BME280;5726;42.160;24.746;2022-08-21T08:13:49;98883.81;;;25.05;100.00
11343;BME280;5726;42.160;24.746;2022-08-21T08:16:16;98879.47;;;25.11;100.00
11343;BME280;5726;42.160;24.746;2022-08-21T08:18:41;98881.03;;;25.19;100.00
11343;BME280;5726;42.160;24.746;2022-08-21T08:21:10;98869.63;;;25.24;100.00
11343;BME280;5726;42.160;24.746;2022-08-21T08:23:36;98870.09;;;25.08;100.00
11343;BME280;5726;42.160;24.746;2022-08-21T08:26:02;98874.28;;;25.34;100.00
11343;BME280;5726;42.160;24.746;2022-08-21T08:28:28;98873.34;;;25.57;100.00
11343;BME280;5726;42.160;24.746;2022-08-21T08:30:54;98871.09;;;25.42;100.00
11343;BME280;5726;42.160;24.746;2022-08-21T08:33:20;98880.00;;;25.60;99.54
11343;BME280;5726;42.160;24.746;2022-08-21T08:35:47;98875.91;;;25.89;96.57
11343;BME280;5726;42.160;24.746;2022-08-21T08:38:14;98876.03;;;25.71;97.28
11343;BME280;5726;42.160;24.746;2022-08-21T08:41:13;98862.00;;;25.52;98.60
11343;BME280;5726;42.160;24.746;2022-08-21T08:43:41;98869.13;;;25.46;99.99
11343;BME280;5726;42.160;24.746;2022-08-21T08:46:14;98864.38;;;25.50;99.04
11343;BME280;5726;42.160;24.746;2022-08-21T08:49:15;98861.16;;;25.69;98.40
11343;BME280;5726;42.160;24.746;2022-08-21T08:51:49;98858.81;;;25.60;98.75
11343;BME280;5726;42.160;24.746;2022-08-21T08:54:23;98847.81;;;25.60;99.68
11343;BME280;5726;42.160;24.746;2022-08-21T08:56:52;98849.63;;;25.84;98.64
11343;BME280;5726;42.160;24.746;2022-08-21T08:59:23;98854.19;;;25.47;100.00
11343;BME280;5726;42.160;24.746;2022-08-21T09:01:51;98842.66;;;25.08;100.00
11343;BME280;5726;42.160;24.746;2022-08-21T09:04:22;98828.94;;;25.08;100.00
11343;BME280;5726;42.160;24.746;2022-08-21T09:07:07;98847.97;;;25.40;100.00
11343;BME280;5726;42.160;24.746;2022-08-21T09:12:39;98842.41;;;25.53;99.83
11343;BME280;5726;42.160;24.746;2022-08-21T09:15:26;98840.06;;;25.48;100.00
11343;BME280;5726;42.160;24.746;2022-08-21T09:26:28;98831.97;;;25.85;100.00
11343;BME280;5726;42.160;24.746;2022-08-21T09:28:58;98824.09;;;25.87;99.88
11343;BME280;5726;42.160;24.746;2022-08-21T09:31:25;98823.19;;;26.04;98.74
11343;BME280;5726;42.160;24.746;2022-08-21T09:33:57;98819.44;;;26.24;94.55
11343;BME280;5726;42.160;24.746;2022-08-21T09:36:33;98814.34;;;26.26;94.69
11343;BME280;5726;42.160;24.746;2022-08-21T09:38:59;98816.03;;;26.13;93.54
11343;BME280;5726;42.160;24.746;2022-08-21T09:41:32;98815.16;;;26.20;94.99
11343;BME280;5726;42.160;24.746;2022-08-21T09:44:01;98803.03;;;26.57;90.08
11343;BME280;5726;42.160;24.746;2022-08-21T09:46:27;98807.66;;;26.31;93.79
11343;BME280;5726;42.160;24.746;2022-08-21T09:48:59;98801.88;;;26.55;91.02
11343;BME280;5726;42.160;24.746;2022-08-21T09:51:26;98804.75;;;26.45;91.08
11343;BME280;5726;42.160;24.746;2022-08-21T09:54:07;98805.03;;;26.53;90.29
11343;BME280;5726;42.160;24.746;2022-08-21T09:56:39;98807.19;;;26.36;93.08
11343;BME280;5726;42.160;24.746;2022-08-21T09:59:35;98811.88;;;26.39;93.32
11343;BME280;5726;42.160;24.746;2022-08-21T10:04:53;98821.22;;;26.81;90.70
11343;BME280;5726;42.160;24.746;2022-08-21T10:07:21;98819.56;;;26.54;92.59
11343;BME280;5726;42.160;24.746;2022-08-21T10:10:02;98825.03;;;26.57;93.94
11343;BME280;5726;42.160;24.746;2022-08-21T10:12:37;98822.91;;;26.35;94.80
11343;BME280;5726;42.160;24.746;2022-08-21T10:15:34;98826.06;;;26.34;94.87
11343;BME280;5726;42.160;24.746;2022-08-21T10:19:01;98827.72;;;26.21;96.28
11343;BME280;5726;42.160;24.746;2022-08-21T10:26:45;98825.69;;;25.88;97.67
11343;BME280;5726;42.160;24.746;2022-08-21T10:32:03;98818.66;;;25.84;100.00
11343;BME280;5726;42.160;24.746;2022-08-21T10:37:17;98816.94;;;26.00;97.66
11343;BME280;5726;42.160;24.746;2022-08-21T10:47:57;98826.56;;;26.58;93.56
11343;BME280;5726;42.160;24.746;2022-08-21T10:50:34;98821.72;;;26.36;96.42
11343;BME280;5726;42.160;24.746;2022-08-21T10:55:44;98833.06;;;26.42;95.44
11343;BME280;5726;42.160;24.746;2022-08-21T10:58:29;98835.16;;;26.24;97.15
11343;BME280;5726;42.160;24.746;2022-08-21T11:01:11;98831.13;;;25.95;98.07
11343;BME280;5726;42.160;24.746;2022-08-21T11:03:46;98834.53;;;25.55;100.00
11343;BME280;5726;42.160;24.746;2022-08-21T11:06:21;98829.03;;;25.55;100.00
11343;BME280;5726;42.160;24.746;2022-08-21T11:08:57;98829.75;;;25.70;100.00
11343;BME280;5726;42.160;24.746;2022-08-21T11:11:32;98827.97;;;25.93;100.00
11343;BME280;5726;42.160;24.746;2022-08-21T11:14:09;98819.00;;;26.33;99.60
11343;BME280;5726;42.160;24.746;2022-08-21T11:16:44;98819.66;;;26.44;96.01
11343;BME280;5726;42.160;24.746;2022-08-21T11:27:33;98815.91;;;26.64;95.49
11343;BME280;5726;42.160;24.746;2022-08-21T11:30:02;98816.94;;;26.77;93.59
11343;BME280;5726;42.160;24.746;2022-08-21T11:35:46;98821.47;;;26.94;90.97
11343;BME280;5726;42.160;24.746;2022-08-21T11:38:27;98813.56;;;26.99;90.31
11343;BME280;5726;42.160;24.746;2022-08-21T11:43:40;98807.53;;;26.41;93.37
11343;BME280;5726;42.160;24.746;2022-08-21T11:52:12;98795.75;;;26.74;90.71
11343;BME280;5726;42.160;24.746;2022-08-21T11:54:44;98801.75;;;26.65;91.54
11343;BME280;5726;42.160;24.746;2022-08-21T11:59:45;98797.25;;;26.45;92.77
11343;BME280;5726;42.160;24.746;2022-08-21T12:02:25;98799.88;;;26.59;92.22
11343;BME280;5726;42.160;24.746;2022-08-21T12:05:04;98789.97;;;26.65;91.20
11343;BME280;5726;42.160;24.746;2022-08-21T12:07:37;98786.06;;;26.29;94.84
11343;BME280;5726;42.160;24.746;2022-08-21T12:10:13;98788.78;;;26.26;95.38
11343;BME280;5726;42.160;24.746;2022-08-21T12:12:41;98788.88;;;26.55;93.24
11343;BME280;5726;42.160;24.746;2022-08-21T12:18:21;98777.50;;;26.17;95.05
11343;BME280;5726;42.160;24.746;2022-08-21T12:29:07;98762.22;;;26.52;92.24
11343;BME280;5726;42.160;24.746;2022-08-21T12:31:48;98761.03;;;26.53;92.62
11343;BME280;5726;42.160;24.746;2022-08-21T12:34:15;98763.78;;;26.53;92.53
11343;BME280;5726;42.160;24.746;2022-08-21T12:36:56;98755.31;;;26.38;94.04
11343;BME280;5726;42.160;24.746;2022-08-21T12:39:26;98755.91;;;26.19;94.02
11343;BME280;5726;42.160;24.746;2022-08-21T12:42:14;98753.63;;;26.10;97.86
11343;BME280;5726;42.160;24.746;2022-08-21T12:44:46;98758.56;;;26.29;95.48
11343;BME280;5726;42.160;24.746;2022-08-21T12:47:25;98752.53;;;26.41;92.44
11343;BME280;5726;42.160;24.746;2022-08-21T12:49:59;98749.88;;;26.34;93.38
11343;BME280;5726;42.160;24.746;2022-08-21T12:52:40;98746.16;;;26.11;96.19
11343;BME280;5726;42.160;24.746;2022-08-21T12:55:11;98742.75;;;26.00;97.28
11343;BME280;5726;42.160;24.746;2022-08-21T12:57:40;98738.31;;;26.13;96.09
11343;BME280;5726;42.160;24.746;2022-08-21T13:00:10;98733.31;;;26.01;96.52
11343;BME280;5726;42.160;24.746;2022-08-21T13:02:43;98732.47;;;26.07;98.29
11343;BME280;5726;42.160;24.746;2022-08-21T13:05:19;98739.50;;;26.48;94.53
11343;BME280;5726;42.160;24.746;2022-08-21T13:07:48;98730.44;;;26.78;93.03
11343;BME280;5726;42.160;24.746;2022-08-21T13:10:23;98730.38;;;26.85;93.10
11343;BME280;5726;42.160;24.746;2022-08-21T13:12:49;98731.53;;;27.13;91.58
11343;BME280;5726;42.160;24.746;2022-08-21T13:15:22;98727.97;;;26.87;93.75
11343;BME280;5726;42.160;24.746;2022-08-21T13:17:50;98736.19;;;27.20;90.82
11343;BME280;5726;42.160;24.746;2022-08-21T13:20:25;98731.94;;;27.15;89.95
11343;BME280;5726;42.160;24.746;2022-08-21T13:22:52;98734.72;;;27.12;90.81
11343;BME280;5726;42.160;24.746;2022-08-21T13:25:20;98744.47;;;27.43;90.07
11343;BME280;5726;42.160;24.746;2022-08-21T13:28:04;98734.88;;;27.28;89.93
11343;BME280;5726;42.160;24.746;2022-08-21T13:30:30;98733.72;;;27.51;88.21
11343;BME280;5726;42.160;24.746;2022-08-21T13:32:58;98734.41;;;27.06;91.05
11343;BME280;5726;42.160;24.746;2022-08-21T13:35:35;98725.09;;;27.23;91.39
11343;BME280;5726;42.160;24.746;2022-08-21T13:38:11;98731.00;;;26.99;92.65
11343;BME280;5726;42.160;24.746;2022-08-21T13:40:54;98728.59;;;27.01;93.59
11343;BME280;5726;42.160;24.746;2022-08-21T13:43:26;98729.78;;;27.00;92.44
11343;BME280;5726;42.160;24.746;2022-08-21T13:45:55;98727.81;;;27.00;91.73
11343;BME280;5726;42.160;24.746;2022-08-21T13:48:26;98727.03;;;27.26;89.82
11343;BME280;5726;42.160;24.746;2022-08-21T13:50:53;98729.06;;;26.96;91.55
11343;BME280;5726;42.160;24.746;2022-08-21T13:53:31;98734.97;;;26.95;89.96
11343;BME280;5726;42.160;24.746;2022-08-21T13:55:57;98724.81;;;26.88;91.60
11343;BME280;5726;42.160;24.746;2022-08-21T13:58:42;98719.44;;;27.07;90.45
11343;BME280;5726;42.160;24.746;2022-08-21T14:01:18;98719.53;;;27.27;90.46
11343;BME280;5726;42.160;24.746;2022-08-21T14:03:45;98718.78;;;27.52;86.49
11343;BME280;5726;42.160;24.746;2022-08-21T14:06:25;98727.47;;;27.47;85.20
11343;BME280;5726;42.160;24.746;2022-08-21T14:08:58;98719.28;;;27.44;85.35
11343;BME280;5726;42.160;24.746;2022-08-21T14:11:25;98720.38;;;27.73;85.31
11343;BME280;5726;42.160;24.746;2022-08-21T14:13:59;98721.13;;;27.96;80.33
11343;BME280;5726;42.160;24.746;2022-08-21T14:16:40;98713.59;;;28.00;81.99
11343;BME280;5726;42.160;24.746;2022-08-21T14:19:23;98713.63;;;27.96;80.37
11343;BME280;5726;42.160;24.746;2022-08-21T14:21:48;98706.88;;;28.01;79.39
11343;BME280;5726;42.160;24.746;2022-08-21T14:24:24;98695.38;;;27.83;81.10
11343;BME280;5726;42.160;24.746;2022-08-21T14:26:54;98701.69;;;27.61;83.16
11343;BME280;5726;42.160;24.746;2022-08-21T14:29:22;98693.28;;;27.45;85.04
11343;BME280;5726;42.160;24.746;2022-08-21T14:31:56;98694.59;;;27.37;86.07
11343;BME280;5726;42.160;24.746;2022-08-21T14:34:25;98694.00;;;27.52;82.88
11343;BME280;5726;42.160;24.746;2022-08-21T14:36:52;98684.31;;;27.41;84.78
11343;BME280;5726;42.160;24.746;2022-08-21T14:39:18;98682.06;;;27.59;85.33
11343;BME280;5726;42.160;24.746;2022-08-21T14:41:44;98689.22;;;27.76;82.81
11343;BME280;5726;42.160;24.746;2022-08-21T14:44:14;98682.22;;;27.71;82.61
11343;BME280;5726;42.160;24.746;2022-08-21T14:46:40;98682.31;;;27.87;82.37
11343;BME280;5726;42.160;24.746;2022-08-21T14:49:05;98676.63;;;27.97;82.55
11343;BME280;5726;42.160;24.746;2022-08-21T14:51:31;98678.19;;;27.76;83.72
11343;BME280;5726;42.160;24.746;2022-08-21T14:53:56;98676.53;;;28.01;81.10
11343;BME280;5726;42.160;24.746;2022-08-21T14:56:22;98672.50;;;28.05;80.71
11343;BME280;5726;42.160;24.746;2022-08-21T14:58:49;98678.81;;;28.06;80.43